sensor_id;sensor_type;location;lat;lon;timestamp;pressure;altitude;pressure_sealevel;temperature;humidity
75701;BME280;64321;48.796;44.740;2022-12-18T00:03:26;102265.69;;;2.36;81.20
75701;BME280;64321;48.796;44.740;2022-12-18T00:08:29;102252.78;;;2.31;80.82
75701;BME280;64321;48.796;44.740;2022-12-18T00:13:31;102266.63;;;2.33;81.25
75701;BME280;64321;48.796;44.740;2022-12-18T00:18:34;102258.88;;;2.32;81.03
75701;BME280;64321;48.796;44.740;2022-12-18T00:23:38;102266.59;;;2.35;81.42
75701;BME280;64321;48.796;44.740;2022-12-18T00:28:42;102253.50;;;2.38;80.80
75701;BME280;64321;48.796;44.740;2022-12-18T00:33:46;102251.84;;;2.34;81.16
75701;BME280;64321;48.796;44.740;2022-12-18T00:38:51;102246.56;;;2.37;80.99
75701;BME280;64321;48.796;44.740;2022-12-18T00:43:53;102249.16;;;2.37;81.31
75701;BME280;64321;48.796;44.740;2022-12-18T00:48:56;102219.03;;;2.25;81.38
75701;BME280;64321;48.796;44.740;2022-12-18T00:53:58;102235.13;;;2.44;80.67
75701;BME280;64321;48.796;44.740;2022-12-18T00:59:01;102224.09;;;2.33;80.77
75701;BME280;64321;48.796;44.740;2022-12-18T01:04:04;102227.38;;;2.41;80.97
75701;BME280;64321;48.796;44.740;2022-12-18T01:09:07;102216.94;;;2.41;81.11
75701;BME280;64321;48.796;44.740;2022-12-18T01:14:11;102213.44;;;2.42;81.17
75701;BME280;64321;48.796;44.740;2022-12-18T01:19:13;102219.41;;;2.47;80.90
75701;BME280;64321;48.796;44.740;2022-12-18T01:24:16;102228.97;;;2.48;81.15
75701;BME280;64321;48.796;44.740;2022-12-18T01:29:18;102231.56;;;2.48;81.30
75701;BME280;64321;48.796;44.740;2022-12-18T01:34:21;102235.13;;;2.44;81.46
75701;BME280;64321;48.796;44.740;2022-12-18T01:39:23;102223.75;;;2.48;81.34
75701;BME280;64321;48.796;44.740;2022-12-18T01:49:50;102211.72;;;2.41;81.10
75701;BME280;64321;48.796;44.740;2022-12-18T01:54:54;102217.75;;;2.43;81.55
75701;BME280;64321;48.796;44.740;2022-12-18T02:00:01;102203.81;;;2.46;81.42
75701;BME280;64321;48.796;44.740;2022-12-18T02:05:17;102215.09;;;2.46;81.14
75701;BME280;64321;48.796;44.740;2022-12-18T02:10:26;102219.59;;;2.38;81.11
75701;BME280;64321;48.796;44.740;2022-12-18T02:15:53;102218.66;;;2.42;81.38
75701;BME280;64321;48.796;44.740;2022-12-18T02:21:36;102199.69;;;2.34;81.50
75701;BME280;64321;48.796;44.740;2022-12-18T02:26:42;102212.63;;;2.40;81.54
75701;BME280;64321;48.796;44.740;2022-12-18T02:31:57;102216.94;;;2.41;81.69
75701;BME280;64321;48.796;44.740;2022-12-18T02:37:03;102207.59;;;2.32;81.57
75701;BME280;64321;48.796;44.740;2022-12-18T02:42:08;102221.25;;;2.42;81.48
75701;BME280;64321;48.796;44.740;2022-12-18T02:47:13;102218.59;;;2.45;81.51
75701;BME280;64321;48.796;44.740;2022-12-18T03:03:06;102199.16;;;2.58;80.65
75701;BME280;64321;48.796;44.740;2022-12-18T03:08:19;102197.44;;;2.57;80.36
75701;BME280;64321;48.796;44.740;2022-12-18T03:13:38;102186.06;;;2.61;80.50
75701;BME280;64321;48.796;44.740;2022-12-18T03:18:57;102182.56;;;2.62;79.89
75701;BME280;64321;48.796;44.740;2022-12-18T03:24:02;102173.75;;;2.68;80.38
75701;BME280;64321;48.796;44.740;2022-12-18T03:29:13;102172.88;;;2.67;80.01
75701;BME280;64321;48.796;44.740;2022-12-18T03:34:21;102170.34;;;2.64;79.90
75701;BME280;64321;48.796;44.740;2022-12-18T03:39:25;102183.38;;;2.64;79.89
75701;BME280;64321;48.796;44.740;2022-12-18T03:44:41;102207.06;;;2.55;79.95
75701;BME280;64321;48.796;44.740;2022-12-18T03:50:20;102204.50;;;2.52;80.44
75701;BME280;64321;48.796;44.740;2022-12-18T03:55:27;102189.69;;;2.54;80.70
75701;BME280;64321;48.796;44.740;2022-12-18T04:00:37;102177.66;;;2.49;80.49
75701;BME280;64321;48.796;44.740;2022-12-18T04:05:43;102142.03;;;2.49;80.28
75701;BME280;64321;48.796;44.740;2022-12-18T04:10:49;102159.16;;;2.59;80.62
75701;BME280;64321;48.796;44.740;2022-12-18T04:15:52;102176.66;;;2.54;80.52
75701;BME280;64321;48.796;44.740;2022-12-18T04:20:56;102187.09;;;2.54;80.83
75701;BME280;64321;48.796;44.740;2022-12-18T04:25:59;102152.66;;;2.40;80.49
75701;BME280;64321;48.796;44.740;2022-12-18T04:31:25;102184.44;;;2.56;80.18
75701;BME280;64321;48.796;44.740;2022-12-18T04:36:28;102186.16;;;2.57;80.00
75701;BME280;64321;48.796;44.740;2022-12-18T04:41:31;102173.09;;;2.58;80.41
75701;BME280;64321;48.796;44.740;2022-12-18T04:46:37;102168.00;;;2.52;80.64
75701;BME280;64321;48.796;44.740;2022-12-18T04:51:39;102172.25;;;2.56;80.04
75701;BME280;64321;48.796;44.740;2022-12-18T04:56:42;102163.66;;;2.53;80.27
75701;BME280;64321;48.796;44.740;2022-12-18T05:01:44;102167.94;;;2.55;80.28
75701;BME280;64321;48.796;44.740;2022-12-18T05:06:48;102157.41;;;2.60;80.07
75701;BME280;64321;48.796;44.740;2022-12-18T05:11:50;102176.66;;;2.54;79.99
75701;BME280;64321;48.796;44.740;2022-12-18T05:16:53;102162.88;;;2.49;80.79
75701;BME280;64321;48.796;44.740;2022-12-18T05:22:01;102174.81;;;2.59;80.40
75701;BME280;64321;48.796;44.740;2022-12-18T05:27:04;102152.09;;;2.64;80.82
75701;BME280;64321;48.796;44.740;2022-12-18T05:32:06;102160.72;;;2.66;80.71
75701;BME280;64321;48.796;44.740;2022-12-18T05:37:09;102167.66;;;2.67;80.56
75701;BME280;64321;48.796;44.740;2022-12-18T05:42:11;102181.66;;;2.63;80.44
75701;BME280;64321;48.796;44.740;2022-12-18T05:47:14;102187.03;;;2.56;80.81
75701;BME280;64321;48.796;44.740;2022-12-18T05:52:16;102200.94;;;2.56;80.75
75701;BME280;64321;48.796;44.740;2022-12-18T05:57:18;102207.69;;;2.66;80.94
75701;BME280;64321;48.796;44.740;2022-12-18T06:02:21;102199.59;;;2.77;80.96
75701;BME280;64321;48.796;44.740;2022-12-18T06:07:24;102218.81;;;2.73;80.90
75701;BME280;64321;48.796;44.740;2022-12-18T06:12:26;102210.03;;;2.77;81.13
75701;BME280;64321;48.796;44.740;2022-12-18T06:17:30;102214.34;;;2.78;81.09
75701;BME280;64321;48.796;44.740;2022-12-18T06:22:32;102216.72;;;2.87;81.08
75701;BME280;64321;48.796;44.740;2022-12-18T06:27:35;102234.06;;;2.90;81.08
75701;BME280;64321;48.796;44.740;2022-12-18T06:32:37;102223.78;;;2.84;81.20
75701;BME280;64321;48.796;44.740;2022-12-18T06:37:40;102213.88;;;2.98;80.41
75701;BME280;64321;48.796;44.740;2022-12-18T06:42:42;102204.06;;;3.06;80.34
75701;BME280;64321;48.796;44.740;2022-12-18T06:47:45;102198.88;;;3.06;80.24
75701;BME280;64321;48.796;44.740;2022-12-18T06:52:47;102195.22;;;3.13;80.35
75701;BME280;64321;48.796;44.740;2022-12-18T06:57:50;102195.09;;;3.18;80.30
75701;BME280;64321;48.796;44.740;2022-12-18T07:02:52;102184.41;;;3.27;79.98
75701;BME280;64321;48.796;44.740;2022-12-18T07:07:55;102175.41;;;3.38;79.61
75701;BME280;64321;48.796;44.740;2022-12-18T07:12:57;102166.53;;;3.44;79.47
75701;BME280;64321;48.796;44.740;2022-12-18T07:18:00;102155.16;;;3.46;79.54
75701;BME280;64321;48.796;44.740;2022-12-18T07:23:03;102137.44;;;3.58;79.55
75701;BME280;64321;48.796;44.740;2022-12-18T07:28:07;102071.22;;;3.59;78.99
75701;BME280;64321;48.796;44.740;2022-12-18T07:33:17;102102.00;;;3.49;79.46
75701;BME280;64321;48.796;44.740;2022-12-18T07:38:20;102102.75;;;3.53;79.51
75701;BME280;64321;48.796;44.740;2022-12-18T07:43:22;102126.44;;;3.46;80.14
75701;BME280;64321;48.796;44.740;2022-12-18T07:48:25;102132.22;;;3.58;80.03
75701;BME280;64321;48.796;44.740;2022-12-18T07:53:28;102113.13;;;3.56;79.77
75701;BME280;64321;48.796;44.740;2022-12-18T07:58:31;102115.75;;;3.56;80.16
75701;BME280;64321;48.796;44.740;2022-12-18T08:03:34;102100.78;;;3.61;79.68
75701;BME280;64321;48.796;44.740;2022-12-18T08:08:36;102125.81;;;3.68;79.71
75701;BME280;64321;48.796;44.740;2022-12-18T08:13:39;102101.13;;;3.48;79.95
75701;BME280;64321;48.796;44.740;2022-12-18T08:18:42;102081.88;;;3.53;80.40
75701;BME280;64321;48.796;44.740;2022-12-18T08:23:44;102100.59;;;3.67;80.11
75701;BME280;64321;48.796;44.740;2022-12-18T08:28:48;102089.03;;;3.75;80.47
75701;BME280;64321;48.796;44.740;2022-12-18T08:33:52;102089.28;;;3.66;80.41
75701;BME280;64321;48.796;44.740;2022-12-18T08:38:56;102086.25;;;3.80;80.10
75701;BME280;64321;48.796;44.740;2022-12-18T08:43:59;102074.88;;;3.82;80.42
75701;BME280;64321;48.796;44.740;2022-12-18T08:49:20;102081.69;;;3.88;79.99
75701;BME280;64321;48.796;44.740;2022-12-18T08:54:23;102072.38;;;3.78;80.29
75701;BME280;64321;48.796;44.740;2022-12-18T08:59:29;102065.09;;;3.89;80.78
75701;BME280;64321;48.796;44.740;2022-12-18T09:04:32;102132.44;;;3.79;80.44
75701;BME280;64321;48.796;44.740;2022-12-18T09:09:35;102080.88;;;3.86;80.82
75701;BME280;64321;48.796;44.740;2022-12-18T09:14:37;102081.84;;;3.82;80.70
75701;BME280;64321;48.796;44.740;2022-12-18T09:19:40;102060.53;;;3.96;80.46
75701;BME280;64321;48.796;44.740;2022-12-18T09:24:42;102061.09;;;4.05;80.50
75701;BME280;64321;48.796;44.740;2022-12-18T09:29:45;102054.94;;;4.08;80.11
75701;BME280;64321;48.796;44.740;2022-12-18T09:34:48;102032.94;;;4.13;80.13
75701;BME280;64321;48.796;44.740;2022-12-18T09:39:51;102013.75;;;4.14;80.14
75701;BME280;64321;48.796;44.740;2022-12-18T09:44:54;102066.94;;;4.13;80.46
75701;BME280;64321;48.796;44.740;2022-12-18T09:50:00;102033.25;;;4.04;80.58
75701;BME280;64321;48.796;44.740;2022-12-18T09:55:21;102031.44;;;4.06;80.58
75701;BME280;64321;48.796;44.740;2022-12-18T10:00:25;102016.72;;;4.04;81.13
75701;BME280;64321;48.796;44.740;2022-12-18T10:05:36;102030.59;;;4.06;80.76
75701;BME280;64321;48.796;44.740;2022-12-18T10:10:52;102018.56;;;4.00;80.64
75701;BME280;64321;48.796;44.740;2022-12-18T10:16:22;101994.75;;;4.09;81.18
75701;BME280;64321;48.796;44.740;2022-12-18T10:21:32;102008.38;;;4.19;80.94
75701;BME280;64321;48.796;44.740;2022-12-18T10:26:36;101994.25;;;4.25;80.71
75701;BME280;64321;48.796;44.740;2022-12-18T10:31:38;101987.69;;;4.38;80.35
75701;BME280;64321;48.796;44.740;2022-12-18T10:36:42;101975.09;;;4.24;80.45
75701;BME280;64321;48.796;44.740;2022-12-18T10:41:44;101985.84;;;4.41;79.83
75701;BME280;64321;48.796;44.740;2022-12-18T10:46:55;101967.56;;;4.40;80.04
75701;BME280;64321;48.796;44.740;2022-12-18T10:57:34;101926.25;;;4.49;79.68
75701;BME280;64321;48.796;44.740;2022-12-18T11:02:38;101955.66;;;4.56;79.86
75701;BME280;64321;48.796;44.740;2022-12-18T11:07:49;101952.84;;;4.62;79.70
75701;BME280;64321;48.796;44.740;2022-12-18T11:12:52;101932.03;;;4.59;79.59
75701;BME280;64321;48.796;44.740;2022-12-18T11:17:55;101938.25;;;4.55;79.96
75701;BME280;64321;48.796;44.740;2022-12-18T11:23:03;101960.38;;;4.46;79.96
75701;BME280;64321;48.796;44.740;2022-12-18T11:28:26;101950.78;;;4.47;80.26
75701;BME280;64321;48.796;44.740;2022-12-18T11:33:29;101946.56;;;4.43;80.36
75701;BME280;64321;48.796;44.740;2022-12-18T11:38:40;101957.81;;;4.45;80.74
75701;BME280;64321;48.796;44.740;2022-12-18T11:43:55;101960.53;;;4.42;80.31
75701;BME280;64321;48.796;44.740;2022-12-18T11:49:26;101924.69;;;4.45;80.62
75701;BME280;64321;48.796;44.740;2022-12-18T11:54:30;101942.38;;;4.37;80.88
75701;BME280;64321;48.796;44.740;2022-12-18T12:05:16;101920.28;;;4.46;80.86
75701;BME280;64321;48.796;44.740;2022-12-18T12:15:52;101918.69;;;4.42;80.80
75701;BME280;64321;48.796;44.740;2022-12-18T12:37:07;101932.97;;;4.32;81.48
75701;BME280;64321;48.796;44.740;2022-12-18T12:42:44;101934.25;;;4.20;81.35
75701;BME280;64321;48.796;44.740;2022-12-18T12:48:16;101926.38;;;4.22;81.86
75701;BME280;64321;48.796;44.740;2022-12-18T12:53:32;101945.38;;;4.27;81.36
75701;BME280;64321;48.796;44.740;2022-12-18T12:59:15;101935.13;;;4.21;81.59
75701;BME280;64321;48.796;44.740;2022-12-18T13:15:43;101966.50;;;4.21;81.90
75701;BME280;64321;48.796;44.740;2022-12-18T13:31:08;101945.16;;;4.33;81.81
75701;BME280;64321;48.796;44.740;2022-12-18T13:41:26;101932.97;;;4.32;81.45
75701;BME280;64321;48.796;44.740;2022-12-18T13:51:48;101907.22;;;4.46;80.64
75701;BME280;64321;48.796;44.740;2022-12-18T13:56:53;101901.09;;;4.47;81.13
75701;BME280;64321;48.796;44.740;2022-12-18T14:01:58;101903.75;;;4.45;81.37
75701;BME280;64321;48.796;44.740;2022-12-18T14:07:15;101901.41;;;4.38;81.09
75701;BME280;64321;48.796;44.740;2022-12-18T14:12:25;101910.03;;;4.40;80.78
75701;BME280;64321;48.796;44.740;2022-12-18T14:17:50;101922.00;;;4.47;81.42
75701;BME280;64321;48.796;44.740;2022-12-18T14:22:57;101904.72;;;4.43;81.44
75701;BME280;64321;48.796;44.740;2022-12-18T14:33:13;101928.44;;;4.37;81.31
75701;BME280;64321;48.796;44.740;2022-12-18T14:43:22;101929.59;;;4.30;81.54
75701;BME280;64321;48.796;44.740;2022-12-18T14:48:37;101939.13;;;4.31;81.57
75701;BME280;64321;48.796;44.740;2022-12-18T14:53:43;101917.28;;;4.32;81.37
75701;BME280;64321;48.796;44.740;2022-12-18T15:04:05;101925.72;;;4.40;81.54
75701;BME280;64321;48.796;44.740;2022-12-18T15:09:25;101914.25;;;4.44;80.88
75701;BME280;64321;48.796;44.740;2022-12-18T15:14:40;101890.38;;;4.53;80.83
75701;BME280;64321;48.796;44.740;2022-12-18T15:19:44;101899.09;;;4.53;80.46
75701;BME280;64321;48.796;44.740;2022-12-18T15:24:48;101896.47;;;4.53;80.29
75701;BME280;64321;48.796;44.740;2022-12-18T15:30:11;101903.69;;;4.47;80.73
75701;BME280;64321;48.796;44.740;2022-12-18T15:35:23;101907.69;;;4.57;80.53
75701;BME280;64321;48.796;44.740;2022-12-18T15:40:26;101939.16;;;4.54;80.90
75701;BME280;64321;48.796;44.740;2022-12-18T15:45:28;101935.66;;;4.55;80.89
75701;BME280;64321;48.796;44.740;2022-12-18T15:50:31;101918.78;;;4.64;80.59
75701;BME280;64321;48.796;44.740;2022-12-18T15:55:37;101902.00;;;4.69;80.76
75701;BME280;64321;48.796;44.740;2022-12-18T16:01:02;101920.50;;;4.65;80.72
75701;BME280;64321;48.796;44.740;2022-12-18T16:06:05;101909.03;;;4.67;80.76
75701;BME280;64321;48.796;44.740;2022-12-18T16:11:26;101903.09;;;4.64;80.34
75701;BME280;64321;48.796;44.740;2022-12-18T16:16:43;101938.22;;;4.57;80.38
75701;BME280;64321;48.796;44.740;2022-12-18T16:21:46;101941.75;;;4.56;80.62
75701;BME280;64321;48.796;44.740;2022-12-18T16:26:50;101951.44;;;4.52;80.44
75701;BME280;64321;48.796;44.740;2022-12-18T16:31:57;101946.13;;;4.55;80.43
75701;BME280;64321;48.796;44.740;2022-12-18T16:37:02;101943.34;;;4.60;80.46
75701;BME280;64321;48.796;44.740;2022-12-18T16:42:18;101936.41;;;4.59;80.76
75701;BME280;64321;48.796;44.740;2022-12-18T16:47:21;101947.81;;;4.56;80.53
75701;BME280;64321;48.796;44.740;2022-12-18T16:52:24;101951.56;;;4.49;80.57
75701;BME280;64321;48.796;44.740;2022-12-18T16:57:27;101945.38;;;4.51;80.73
75701;BME280;64321;48.796;44.740;2022-12-18T17:02:29;101934.91;;;4.51;80.49
75701;BME280;64321;48.796;44.740;2022-12-18T17:07:34;101919.97;;;4.55;80.41
75701;BME280;64321;48.796;44.740;2022-12-18T17:12:37;101920.31;;;4.69;80.12
75701;BME280;64321;48.796;44.740;2022-12-18T17:17:40;101924.56;;;4.72;79.94
75701;BME280;64321;48.796;44.740;2022-12-18T17:22:42;101923.88;;;4.67;79.87
75701;BME280;64321;48.796;44.740;2022-12-18T17:27:44;101917.78;;;4.66;79.93
75701;BME280;64321;48.796;44.740;2022-12-18T17:32:47;101927.13;;;4.73;79.60
75701;BME280;64321;48.796;44.740;2022-12-18T17:37:49;101924.25;;;4.81;79.56
75701;BME280;64321;48.796;44.740;2022-12-18T17:42:52;101942.63;;;5.03;79.40
75701;BME280;64321;48.796;44.740;2022-12-18T17:47:55;101939.22;;;5.01;79.06
75701;BME280;64321;48.796;44.740;2022-12-18T17:53:01;101933.84;;;5.04;78.72
75701;BME280;64321;48.796;44.740;2022-12-18T17:58:04;101915.47;;;5.05;79.17
75701;BME280;64321;48.796;44.740;2022-12-18T18:03:06;101903.13;;;5.09;79.05
75701;BME280;64321;48.796;44.740;2022-12-18T18:08:09;101907.44;;;5.10;78.68
75701;BME280;64321;48.796;44.740;2022-12-18T18:13:31;101905.53;;;5.15;78.53
75701;BME280;64321;48.796;44.740;2022-12-18T18:18:56;101903.56;;;5.20;78.50
75701;BME280;64321;48.796;44.740;2022-12-18T18:24:02;101911.34;;;5.21;78.35
75701;BME280;64321;48.796;44.740;2022-12-18T18:29:13;101920.22;;;5.19;78.82
75701;BME280;64321;48.796;44.740;2022-12-18T18:34:22;101918.03;;;5.07;78.92
75701;BME280;64321;48.796;44.740;2022-12-18T18:39:26;101923.63;;;4.98;79.39
75701;BME280;64321;48.796;44.740;2022-12-18T18:44:29;101944.22;;;5.07;79.58
75701;BME280;64321;48.796;44.740;2022-12-18T18:49:31;101951.00;;;5.12;79.36
75701;BME280;64321;48.796;44.740;2022-12-18T18:54:34;101942.06;;;5.18;79.35
75701;BME280;64321;48.796;44.740;2022-12-18T18:59:36;101926.34;;;5.18;79.28
75701;BME280;64321;48.796;44.740;2022-12-18T19:04:39;101929.50;;;5.26;79.26
75701;BME280;64321;48.796;44.740;2022-12-18T19:09:48;101938.28;;;5.25;79.46
75701;BME280;64321;48.796;44.740;2022-12-18T19:14:53;101945.97;;;5.30;79.48
75701;BME280;64321;48.796;44.740;2022-12-18T19:19:56;101944.69;;;5.18;79.51
75701;BME280;64321;48.796;44.740;2022-12-18T19:24:58;101938.38;;;5.22;78.93
75701;BME280;64321;48.796;44.740;2022-12-18T19:30:01;101950.94;;;5.14;79.32
75701;BME280;64321;48.796;44.740;2022-12-18T19:35:04;101936.13;;;5.13;79.44
75701;BME280;64321;48.796;44.740;2022-12-18T19:40:08;101960.41;;;5.18;79.44
75701;BME280;64321;48.796;44.740;2022-12-18T19:45:14;101958.00;;;5.12;79.85
75701;BME280;64321;48.796;44.740;2022-12-18T19:50:16;101966.75;;;5.11;80.32
75701;BME280;64321;48.796;44.740;2022-12-18T19:55:19;101976.81;;;5.21;79.58
75701;BME280;64321;48.796;44.740;2022-12-18T20:00:22;101973.75;;;5.34;79.33
75701;BME280;64321;48.796;44.740;2022-12-18T20:05:24;101974.25;;;5.43;79.82
75701;BME280;64321;48.796;44.740;2022-12-18T20:10:27;101981.19;;;5.44;79.59
75701;BME280;64321;48.796;44.740;2022-12-18T20:15:29;101978.56;;;5.44;79.94
75701;BME280;64321;48.796;44.740;2022-12-18T20:20:32;101984.84;;;5.40;80.44
75701;BME280;64321;48.796;44.740;2022-12-18T20:25:37;101988.50;;;5.36;79.99
75701;BME280;64321;48.796;44.740;2022-12-18T20:30:40;101998.84;;;5.39;79.60
75701;BME280;64321;48.796;44.740;2022-12-18T20:35:42;101999.59;;;5.43;79.50
75701;BME280;64321;48.796;44.740;2022-12-18T20:40:45;101995.78;;;5.51;79.42
75701;BME280;64321;48.796;44.740;2022-12-18T20:45:48;101978.88;;;5.37;79.73
75701;BME280;64321;48.796;44.740;2022-12-18T20:51:02;101992.63;;;5.42;79.31
75701;BME280;64321;48.796;44.740;2022-12-18T20:56:14;101987.44;;;5.40;78.87
75701;BME280;64321;48.796;44.740;2022-12-18T21:01:23;101996.81;;;5.24;78.87
75701;BME280;64321;48.796;44.740;2022-12-18T21:06:26;102001.38;;;5.19;79.36
75701;BME280;64321;48.796;44.740;2022-12-18T21:11:32;102002.16;;;5.21;78.75
75701;BME280;64321;48.796;44.740;2022-12-18T21:16:54;102017.16;;;4.93;79.10
75701;BME280;64321;48.796;44.740;2022-12-18T21:21:57;101995.28;;;4.70;79.30
75701;BME280;64321;48.796;44.740;2022-12-18T21:26:59;102022.34;;;4.69;79.40
75701;BME280;64321;48.796;44.740;2022-12-18T21:32:03;102031.00;;;4.46;79.37
75701;BME280;64321;48.796;44.740;2022-12-18T21:37:06;102024.50;;;4.32;78.86
75701;BME280;64321;48.796;44.740;2022-12-18T21:42:10;102057.28;;;4.15;79.57
75701;BME280;64321;48.796;44.740;2022-12-18T21:47:31;102059.75;;;3.94;79.32
75701;BME280;64321;48.796;44.740;2022-12-18T21:52:34;102066.81;;;3.90;77.76
75701;BME280;64321;48.796;44.740;2022-12-18T21:57:37;102076.63;;;3.82;77.25
75701;BME280;64321;48.796;44.740;2022-12-18T22:02:40;102066.72;;;3.64;77.56
75701;BME280;64321;48.796;44.740;2022-12-18T22:07:43;102076.03;;;3.74;77.43
75701;BME280;64321;48.796;44.740;2022-12-18T22:12:45;102075.13;;;3.75;77.11
75701;BME280;64321;48.796;44.740;2022-12-18T22:17:49;102082.09;;;3.74;76.08
75701;BME280;64321;48.796;44.740;2022-12-18T22:23:01;102081.13;;;3.77;76.18
75701;BME280;64321;48.796;44.740;2022-12-18T22:28:07;102078.94;;;3.63;75.87
75701;BME280;64321;48.796;44.740;2022-12-18T22:33:28;102093.38;;;3.45;76.53
75701;BME280;64321;48.796;44.740;2022-12-18T22:38:30;102085.47;;;3.48;76.64
75701;BME280;64321;48.796;44.740;2022-12-18T22:43:33;102096.00;;;3.45;76.35
75701;BME280;64321;48.796;44.740;2022-12-18T22:48:35;102089.59;;;3.25;76.63
75701;BME280;64321;48.796;44.740;2022-12-18T22:53:38;102100.88;;;3.27;76.52
75701;BME280;64321;48.796;44.740;2022-12-18T22:58:46;102097.63;;;3.19;76.30
75701;BME280;64321;48.796;44.740;2022-12-18T23:03:50;102123.34;;;3.00;76.41
75701;BME280;64321;48.796;44.740;2022-12-18T23:08:56;102123.13;;;2.75;75.77
75701;BME280;64321;48.796;44.740;2022-12-18T23:13:59;102140.75;;;2.65;74.24
75701;BME280;64321;48.796;44.740;2022-12-18T23:19:01;102120.19;;;2.53;73.67
75701;BME280;64321;48.796;44.740;2022-12-18T23:24:05;102142.47;;;2.66;72.84
75701;BME280;64321;48.796;44.740;2022-12-18T23:29:08;102154.72;;;2.63;71.93
75701;BME280;64321;48.796;44.740;2022-12-18T23:34:12;102157.22;;;2.67;72.56
75701;BME280;64321;48.796;44.740;2022-12-18T23:39:14;102165.47;;;2.51;72.96
75701;BME280;64321;48.796;44.740;2022-12-18T23:44:30;102153.78;;;2.67;72.15
75701;BME280;64321;48.796;44.740;2022-12-18T23:49:33;102150.47;;;2.59;73.58
75701;BME280;64321;48.796;44.740;2022-12-18T23:54:35;102143.91;;;2.42;73.71
75701;BME280;64321;48.796;44.740;2022-12-18T23:59:39;102157.75;;;2.46;72.28
